• Join FlightAware (Why Join?)
  • Login
  • US Flag 
12:56AM EST


 

Airport Tracker/Info


-or-


 

Live Flight TrackerFlight Track Log ✈ JTA1562 ✈ 30-Jun-2013 ✈ ROMY / MMY - ROAH / OKA

Flight Track Log - Related Links

Times and Time Zones

All times are in EDT time to prevent confusion due to time zone crossing. See the JTA1562 flight status page for this flight to view local times or setup timezone preferences in your user account.

Time Position Orientation Groundspeed Altitude Reporting Facility
EDT Latitude Longitude Course Direction KTS MPH feet Rate Location/Type
01:53AM 24.9611 125.5854 56° Northeast  Level Estimated
01:54AM 25.0205 125.6824 56° Northeast  Level Estimated
01:55AM 25.0797 125.7794 56° Northeast  Level Estimated
01:56AM 25.1389 125.8766 56° Northeast  Level Estimated
01:57AM 25.1980 125.9738 56° Northeast  Level Estimated
01:58AM 25.2571 126.0711 56° Northeast  Level Estimated
01:59AM 25.3161 126.1686 56° Northeast  Level Estimated
02:00AM 25.3750 126.2661 56° Northeast  Level Estimated
02:01AM 25.4339 126.3637 56° Northeast  Level Estimated
02:02AM 25.4927 126.4614 56° Northeast  Level Estimated
02:03AM 25.5515 126.5592 56° Northeast  Level Estimated
02:04AM 25.6101 126.6571 56° Northeast  Level Estimated
02:05AM 25.6687 126.7551 56° Northeast  Level Estimated
02:06AM 25.7273 126.8532 56° Northeast  Level Estimated
02:07AM 25.7858 126.9514 57° Northeast  Level Estimated
02:08AM 25.8442 127.0497 57° Northeast  Level Estimated
02:09AM 25.9025 127.1481 57° Northeast  Level Estimated
02:10AM 25.9608 127.2466 57° Northeast  Level Estimated
02:11AM 26.0190 127.3452 57° Northeast  Level Estimated
02:12AM 26.0772 127.4438 57° Northeast  Level Estimated
02:13AM 26.1352 127.5426 57° Northeast  Level Estimated
02:14AM 26.1933 127.6415 57° Northeast  Level Estimated
02:15AM 26.1958 127.6459 57° Northeast  Level Estimated
02:16AM 26.1958 127.6459 347° North  Level Estimated
02:17AM 26.1958 127.6459 347° North  Level Estimated
02:18AM 26.1958 127.6459 347° North  Level Estimated
02:19AM 26.1958 127.6459 347° North  Level Estimated
02:20AM 26.1958 127.6459 347° North  Level Estimated
02:21AM 26.1958 127.6459 347° North  Level Estimated
02:22AM 26.1958 127.6459 347° North  Level Estimated
02:23AM 26.1958 127.6459 347° North  Level Estimated
02:24AM 26.1958 127.6459 347° North  Level Estimated